sensor_id;sensor_type;location;lat;lon;timestamp;P1;durP1;ratioP1;P2;durP2;ratioP2
64932;SDS011;51446;53.850;10.662;2023-05-27T00:01:58;16.13;;;3.53;;
64932;SDS011;51446;53.850;10.662;2023-05-27T00:04:23;14.03;;;3.23;;
64932;SDS011;51446;53.850;10.662;2023-05-27T00:06:48;14.97;;;3.47;;
64932;SDS011;51446;53.850;10.662;2023-05-27T00:09:14;10.53;;;3.10;;
64932;SDS011;51446;53.850;10.662;2023-05-27T00:11:39;12.65;;;2.97;;
64932;SDS011;51446;53.850;10.662;2023-05-27T00:14:05;12.43;;;3.00;;
64932;SDS011;51446;53.850;10.662;2023-05-27T00:16:30;14.40;;;3.60;;
64932;SDS011;51446;53.850;10.662;2023-05-27T00:18:56;11.70;;;3.60;;
64932;SDS011;51446;53.850;10.662;2023-05-27T00:21:22;10.70;;;2.90;;
64932;SDS011;51446;53.850;10.662;2023-05-27T00:23:51;20.90;;;3.30;;
64932;SDS011;51446;53.850;10.662;2023-05-27T00:26:16;13.95;;;3.67;;
64932;SDS011;51446;53.850;10.662;2023-05-27T00:28:41;12.77;;;3.80;;
64932;SDS011;51446;53.850;10.662;2023-05-27T00:31:07;13.30;;;3.37;;
64932;SDS011;51446;53.850;10.662;2023-05-27T00:33:32;13.73;;;3.77;;
64932;SDS011;51446;53.850;10.662;2023-05-27T00:35:57;12.60;;;3.67;;
64932;SDS011;51446;53.850;10.662;2023-05-27T00:38:22;8.63;;;3.43;;
64932;SDS011;51446;53.850;10.662;2023-05-27T00:40:48;10.40;;;3.40;;
64932;SDS011;51446;53.850;10.662;2023-05-27T00:43:17;20.30;;;4.10;;
64932;SDS011;51446;53.850;10.662;2023-05-27T00:45:42;12.57;;;3.77;;
64932;SDS011;51446;53.850;10.662;2023-05-27T00:48:07;14.13;;;3.30;;
64932;SDS011;51446;53.850;10.662;2023-05-27T00:50:33;16.37;;;3.53;;
64932;SDS011;51446;53.850;10.662;2023-05-27T00:52:59;13.38;;;3.83;;
64932;SDS011;51446;53.850;10.662;2023-05-27T00:55:24;16.97;;;3.80;;
64932;SDS011;51446;53.850;10.662;2023-05-27T00:57:50;13.50;;;3.80;;
64932;SDS011;51446;53.850;10.662;2023-05-27T01:00:18;17.23;;;3.65;;
64932;SDS011;51446;53.850;10.662;2023-05-27T01:02:44;14.87;;;3.90;;
64932;SDS011;51446;53.850;10.662;2023-05-27T01:05:09;17.03;;;4.00;;
64932;SDS011;51446;53.850;10.662;2023-05-27T01:07:54;15.18;;;3.95;;
64932;SDS011;51446;53.850;10.662;2023-05-27T01:10:46;14.88;;;3.72;;
64932;SDS011;51446;53.850;10.662;2023-05-27T01:16:05;8.85;;;3.67;;
64932;SDS011;51446;53.850;10.662;2023-05-27T01:18:36;13.00;;;3.67;;
64932;SDS011;51446;53.850;10.662;2023-05-27T01:21:05;14.63;;;3.70;;
64932;SDS011;51446;53.850;10.662;2023-05-27T01:23:34;12.95;;;3.47;;
64932;SDS011;51446;53.850;10.662;2023-05-27T01:26:03;14.57;;;3.92;;
64932;SDS011;51446;53.850;10.662;2023-05-27T01:28:29;10.45;;;3.15;;
64932;SDS011;51446;53.850;10.662;2023-05-27T01:30:55;17.63;;;5.13;;
64932;SDS011;51446;53.850;10.662;2023-05-27T01:33:26;9.57;;;3.28;;
64932;SDS011;51446;53.850;10.662;2023-05-27T01:35:58;13.83;;;3.30;;
64932;SDS011;51446;53.850;10.662;2023-05-27T01:38:28;9.48;;;3.42;;
64932;SDS011;51446;53.850;10.662;2023-05-27T01:40:57;17.23;;;3.60;;
64932;SDS011;51446;53.850;10.662;2023-05-27T01:43:24;14.35;;;3.25;;
64932;SDS011;51446;53.850;10.662;2023-05-27T01:45:49;8.07;;;3.30;;
64932;SDS011;51446;53.850;10.662;2023-05-27T01:48:15;10.33;;;3.17;;
64932;SDS011;51446;53.850;10.662;2023-05-27T01:50:41;17.85;;;3.92;;
64932;SDS011;51446;53.850;10.662;2023-05-27T01:53:06;16.03;;;4.23;;
64932;SDS011;51446;53.850;10.662;2023-05-27T01:55:31;11.80;;;3.83;;
64932;SDS011;51446;53.850;10.662;2023-05-27T01:57:57;15.90;;;4.57;;
64932;SDS011;51446;53.850;10.662;2023-05-27T02:00:22;20.10;;;3.60;;
64932;SDS011;51446;53.850;10.662;2023-05-27T02:02:49;12.82;;;3.67;;
64932;SDS011;51446;53.850;10.662;2023-05-27T02:05:14;12.07;;;3.58;;
64932;SDS011;51446;53.850;10.662;2023-05-27T02:07:40;12.67;;;2.90;;
64932;SDS011;51446;53.850;10.662;2023-05-27T02:10:05;10.60;;;3.57;;
64932;SDS011;51446;53.850;10.662;2023-05-27T02:12:31;12.18;;;3.30;;
64932;SDS011;51446;53.850;10.662;2023-05-27T02:14:56;15.20;;;3.33;;
64932;SDS011;51446;53.850;10.662;2023-05-27T02:17:21;17.37;;;3.53;;
64932;SDS011;51446;53.850;10.662;2023-05-27T02:19:49;7.15;;;2.72;;
64932;SDS011;51446;53.850;10.662;2023-05-27T02:22:15;11.48;;;3.10;;
64932;SDS011;51446;53.850;10.662;2023-05-27T02:24:40;11.03;;;3.30;;
64932;SDS011;51446;53.850;10.662;2023-05-27T02:27:05;9.87;;;3.63;;
64932;SDS011;51446;53.850;10.662;2023-05-27T02:29:30;10.30;;;3.70;;
64932;SDS011;51446;53.850;10.662;2023-05-27T02:31:56;13.83;;;3.30;;
64932;SDS011;51446;53.850;10.662;2023-05-27T02:34:21;9.70;;;3.10;;
64932;SDS011;51446;53.850;10.662;2023-05-27T02:36:46;9.90;;;3.47;;
64932;SDS011;51446;53.850;10.662;2023-05-27T02:39:11;11.97;;;3.83;;
64932;SDS011;51446;53.850;10.662;2023-05-27T02:41:37;11.68;;;3.13;;
64932;SDS011;51446;53.850;10.662;2023-05-27T02:44:02;8.40;;;3.22;;
64932;SDS011;51446;53.850;10.662;2023-05-27T02:46:28;14.53;;;3.17;;
64932;SDS011;51446;53.850;10.662;2023-05-27T02:48:53;11.03;;;3.47;;
64932;SDS011;51446;53.850;10.662;2023-05-27T02:51:19;15.05;;;3.47;;
64932;SDS011;51446;53.850;10.662;2023-05-27T02:53:44;9.53;;;3.47;;
64932;SDS011;51446;53.850;10.662;2023-05-27T02:56:09;10.90;;;3.63;;
64932;SDS011;51446;53.850;10.662;2023-05-27T02:58:35;8.97;;;3.70;;
64932;SDS011;51446;53.850;10.662;2023-05-27T03:01:00;9.03;;;3.73;;
64932;SDS011;51446;53.850;10.662;2023-05-27T03:03:25;13.77;;;4.00;;
64932;SDS011;51446;53.850;10.662;2023-05-27T03:05:50;11.03;;;3.93;;
64932;SDS011;51446;53.850;10.662;2023-05-27T03:08:16;13.97;;;4.60;;
64932;SDS011;51446;53.850;10.662;2023-05-27T03:10:41;11.50;;;4.67;;
64932;SDS011;51446;53.850;10.662;2023-05-27T03:13:06;14.20;;;4.20;;
64932;SDS011;51446;53.850;10.662;2023-05-27T03:15:32;10.20;;;4.27;;
64932;SDS011;51446;53.850;10.662;2023-05-27T03:17:57;10.30;;;3.97;;
64932;SDS011;51446;53.850;10.662;2023-05-27T03:20:23;10.70;;;4.18;;
64932;SDS011;51446;53.850;10.662;2023-05-27T03:22:49;8.10;;;3.85;;
64932;SDS011;51446;53.850;10.662;2023-05-27T03:25:14;10.87;;;4.30;;
64932;SDS011;51446;53.850;10.662;2023-05-27T03:27:40;9.47;;;3.97;;
64932;SDS011;51446;53.850;10.662;2023-05-27T03:30:05;11.25;;;3.88;;
64932;SDS011;51446;53.850;10.662;2023-05-27T03:32:32;11.98;;;3.72;;
64932;SDS011;51446;53.850;10.662;2023-05-27T03:34:58;13.87;;;3.90;;
64932;SDS011;51446;53.850;10.662;2023-05-27T03:37:23;11.37;;;4.03;;
64932;SDS011;51446;53.850;10.662;2023-05-27T03:39:48;7.60;;;3.47;;
64932;SDS011;51446;53.850;10.662;2023-05-27T03:42:14;11.07;;;3.53;;
64932;SDS011;51446;53.850;10.662;2023-05-27T03:44:39;10.75;;;3.30;;
64932;SDS011;51446;53.850;10.662;2023-05-27T03:47:05;7.77;;;3.40;;
64932;SDS011;51446;53.850;10.662;2023-05-27T03:49:30;7.75;;;3.10;;
64932;SDS011;51446;53.850;10.662;2023-05-27T03:51:56;7.23;;;3.10;;
64932;SDS011;51446;53.850;10.662;2023-05-27T03:54:21;9.83;;;3.33;;
64932;SDS011;51446;53.850;10.662;2023-05-27T03:56:47;11.53;;;3.43;;
64932;SDS011;51446;53.850;10.662;2023-05-27T03:59:12;10.37;;;3.47;;
64932;SDS011;51446;53.850;10.662;2023-05-27T04:01:38;8.50;;;3.20;;
64932;SDS011;51446;53.850;10.662;2023-05-27T04:04:04;11.82;;;3.15;;
64932;SDS011;51446;53.850;10.662;2023-05-27T04:06:29;7.55;;;3.58;;
64932;SDS011;51446;53.850;10.662;2023-05-27T04:08:56;10.60;;;3.40;;
64932;SDS011;51446;53.850;10.662;2023-05-27T04:11:21;5.88;;;2.88;;
64932;SDS011;51446;53.850;10.662;2023-05-27T04:13:47;7.57;;;3.27;;
64932;SDS011;51446;53.850;10.662;2023-05-27T04:16:13;8.15;;;3.00;;
64932;SDS011;51446;53.850;10.662;2023-05-27T04:18:40;8.93;;;3.38;;
64932;SDS011;51446;53.850;10.662;2023-05-27T04:21:05;7.53;;;3.40;;
64932;SDS011;51446;53.850;10.662;2023-05-27T04:23:30;9.13;;;4.00;;
64932;SDS011;51446;53.850;10.662;2023-05-27T04:25:56;9.50;;;3.60;;
64932;SDS011;51446;53.850;10.662;2023-05-27T04:28:21;8.43;;;3.60;;
64932;SDS011;51446;53.850;10.662;2023-05-27T04:30:46;11.63;;;3.50;;
64932;SDS011;51446;53.850;10.662;2023-05-27T04:33:14;13.02;;;3.60;;
64932;SDS011;51446;53.850;10.662;2023-05-27T04:35:40;7.15;;;3.28;;
64932;SDS011;51446;53.850;10.662;2023-05-27T04:38:09;14.18;;;4.20;;
64932;SDS011;51446;53.850;10.662;2023-05-27T04:40:35;9.48;;;3.38;;
64932;SDS011;51446;53.850;10.662;2023-05-27T04:43:00;8.53;;;3.23;;
64932;SDS011;51446;53.850;10.662;2023-05-27T04:45:26;8.13;;;3.60;;
64932;SDS011;51446;53.850;10.662;2023-05-27T04:47:52;6.50;;;3.00;;
64932;SDS011;51446;53.850;10.662;2023-05-27T04:50:17;14.82;;;3.65;;
64932;SDS011;51446;53.850;10.662;2023-05-27T04:52:42;10.80;;;3.60;;
64932;SDS011;51446;53.850;10.662;2023-05-27T04:55:08;13.30;;;3.50;;
64932;SDS011;51446;53.850;10.662;2023-05-27T04:57:35;11.07;;;3.63;;
64932;SDS011;51446;53.850;10.662;2023-05-27T05:00:01;12.55;;;4.10;;
64932;SDS011;51446;53.850;10.662;2023-05-27T05:02:28;10.82;;;3.33;;
64932;SDS011;51446;53.850;10.662;2023-05-27T05:05:00;18.08;;;3.63;;
64932;SDS011;51446;53.850;10.662;2023-05-27T05:07:29;10.23;;;3.33;;
64932;SDS011;51446;53.850;10.662;2023-05-27T05:09:55;9.50;;;3.50;;
64932;SDS011;51446;53.850;10.662;2023-05-27T05:12:20;15.52;;;3.80;;
64932;SDS011;51446;53.850;10.662;2023-05-27T05:14:46;12.33;;;3.40;;
64932;SDS011;51446;53.850;10.662;2023-05-27T05:17:11;15.07;;;3.83;;
64932;SDS011;51446;53.850;10.662;2023-05-27T05:19:36;11.33;;;3.77;;
64932;SDS011;51446;53.850;10.662;2023-05-27T05:22:02;12.63;;;3.60;;
64932;SDS011;51446;53.850;10.662;2023-05-27T05:24:27;17.03;;;3.97;;
64932;SDS011;51446;53.850;10.662;2023-05-27T05:26:52;12.73;;;3.37;;
64932;SDS011;51446;53.850;10.662;2023-05-27T05:29:17;13.97;;;4.23;;
64932;SDS011;51446;53.850;10.662;2023-05-27T05:31:43;18.90;;;3.30;;
64932;SDS011;51446;53.850;10.662;2023-05-27T05:34:10;11.10;;;3.40;;
64932;SDS011;51446;53.850;10.662;2023-05-27T05:36:35;11.10;;;3.20;;
64932;SDS011;51446;53.850;10.662;2023-05-27T05:39:01;16.00;;;3.78;;
64932;SDS011;51446;53.850;10.662;2023-05-27T05:41:27;12.95;;;3.83;;
64932;SDS011;51446;53.850;10.662;2023-05-27T05:43:53;13.03;;;4.03;;
64932;SDS011;51446;53.850;10.662;2023-05-27T05:46:18;14.13;;;3.90;;
64932;SDS011;51446;53.850;10.662;2023-05-27T05:48:43;13.93;;;3.67;;
64932;SDS011;51446;53.850;10.662;2023-05-27T05:51:08;11.93;;;3.73;;
64932;SDS011;51446;53.850;10.662;2023-05-27T05:53:34;14.03;;;3.27;;
64932;SDS011;51446;53.850;10.662;2023-05-27T05:55:59;12.87;;;3.50;;
64932;SDS011;51446;53.850;10.662;2023-05-27T05:58:24;10.90;;;3.20;;
64932;SDS011;51446;53.850;10.662;2023-05-27T06:00:50;8.30;;;2.73;;
64932;SDS011;51446;53.850;10.662;2023-05-27T06:03:15;12.87;;;3.13;;
64932;SDS011;51446;53.850;10.662;2023-05-27T06:05:40;15.83;;;3.67;;
64932;SDS011;51446;53.850;10.662;2023-05-27T06:08:05;14.23;;;3.30;;
64932;SDS011;51446;53.850;10.662;2023-05-27T06:10:31;12.37;;;3.37;;
64932;SDS011;51446;53.850;10.662;2023-05-27T06:12:56;15.00;;;3.10;;
64932;SDS011;51446;53.850;10.662;2023-05-27T06:15:21;12.23;;;3.00;;
64932;SDS011;51446;53.850;10.662;2023-05-27T06:17:46;12.27;;;3.10;;
64932;SDS011;51446;53.850;10.662;2023-05-27T06:20:12;12.38;;;3.25;;
64932;SDS011;51446;53.850;10.662;2023-05-27T06:22:37;9.07;;;2.53;;
64932;SDS011;51446;53.850;10.662;2023-05-27T06:25:03;11.73;;;3.20;;
64932;SDS011;51446;53.850;10.662;2023-05-27T06:27:28;12.83;;;3.00;;
64932;SDS011;51446;53.850;10.662;2023-05-27T06:29:53;27.40;;;3.37;;
64932;SDS011;51446;53.850;10.662;2023-05-27T06:32:19;13.83;;;3.37;;
64932;SDS011;51446;53.850;10.662;2023-05-27T06:34:45;10.93;;;2.88;;
64932;SDS011;51446;53.850;10.662;2023-05-27T06:37:10;10.00;;;2.73;;
64932;SDS011;51446;53.850;10.662;2023-05-27T06:39:35;13.17;;;3.00;;
64932;SDS011;51446;53.850;10.662;2023-05-27T06:42:00;10.77;;;2.80;;
64932;SDS011;51446;53.850;10.662;2023-05-27T06:44:26;14.23;;;3.38;;
64932;SDS011;51446;53.850;10.662;2023-05-27T06:46:51;13.43;;;2.73;;
64932;SDS011;51446;53.850;10.662;2023-05-27T06:49:17;10.87;;;2.77;;
64932;SDS011;51446;53.850;10.662;2023-05-27T06:51:42;9.20;;;2.77;;
64932;SDS011;51446;53.850;10.662;2023-05-27T06:54:08;10.52;;;2.90;;
64932;SDS011;51446;53.850;10.662;2023-05-27T06:56:33;9.57;;;2.77;;
64932;SDS011;51446;53.850;10.662;2023-05-27T06:58:58;11.93;;;3.20;;
64932;SDS011;51446;53.850;10.662;2023-05-27T07:01:24;10.60;;;3.00;;
64932;SDS011;51446;53.850;10.662;2023-05-27T07:03:49;12.48;;;2.65;;
64932;SDS011;51446;53.850;10.662;2023-05-27T07:06:15;10.43;;;3.20;;
64932;SDS011;51446;53.850;10.662;2023-05-27T07:08:41;14.43;;;2.77;;
64932;SDS011;51446;53.850;10.662;2023-05-27T07:11:06;12.68;;;3.08;;
64932;SDS011;51446;53.850;10.662;2023-05-27T07:13:32;12.03;;;2.90;;
64932;SDS011;51446;53.850;10.662;2023-05-27T07:15:57;12.93;;;3.00;;
64932;SDS011;51446;53.850;10.662;2023-05-27T07:18:22;9.87;;;2.70;;
64932;SDS011;51446;53.850;10.662;2023-05-27T07:20:47;10.17;;;2.60;;
64932;SDS011;51446;53.850;10.662;2023-05-27T07:23:13;12.30;;;3.17;;
64932;SDS011;51446;53.850;10.662;2023-05-27T07:25:38;11.67;;;2.93;;
64932;SDS011;51446;53.850;10.662;2023-05-27T07:28:03;10.67;;;3.00;;
64932;SDS011;51446;53.850;10.662;2023-05-27T07:30:28;11.80;;;2.83;;
64932;SDS011;51446;53.850;10.662;2023-05-27T07:32:54;13.93;;;2.83;;
64932;SDS011;51446;53.850;10.662;2023-05-27T07:35:19;14.90;;;2.90;;
64932;SDS011;51446;53.850;10.662;2023-05-27T07:37:45;9.30;;;2.67;;
64932;SDS011;51446;53.850;10.662;2023-05-27T07:40:10;11.67;;;2.83;;
64932;SDS011;51446;53.850;10.662;2023-05-27T07:42:36;13.73;;;2.90;;
64932;SDS011;51446;53.850;10.662;2023-05-27T07:45:02;9.48;;;2.75;;
64932;SDS011;51446;53.850;10.662;2023-05-27T07:47:28;16.20;;;2.75;;
64932;SDS011;51446;53.850;10.662;2023-05-27T07:49:53;11.87;;;2.70;;
64932;SDS011;51446;53.850;10.662;2023-05-27T07:52:18;9.00;;;2.90;;
64932;SDS011;51446;53.850;10.662;2023-05-27T07:54:44;12.93;;;2.90;;
64932;SDS011;51446;53.850;10.662;2023-05-27T07:57:09;15.50;;;2.80;;
64932;SDS011;51446;53.850;10.662;2023-05-27T07:59:34;9.13;;;2.50;;
64932;SDS011;51446;53.850;10.662;2023-05-27T08:01:59;9.17;;;2.20;;
64932;SDS011;51446;53.850;10.662;2023-05-27T08:04:25;9.83;;;2.43;;
64932;SDS011;51446;53.850;10.662;2023-05-27T08:06:50;9.90;;;2.60;;
64932;SDS011;51446;53.850;10.662;2023-05-27T08:09:15;9.15;;;2.65;;
64932;SDS011;51446;53.850;10.662;2023-05-27T08:11:41;10.07;;;2.43;;
64932;SDS011;51446;53.850;10.662;2023-05-27T08:14:06;8.73;;;2.27;;
64932;SDS011;51446;53.850;10.662;2023-05-27T08:16:31;9.60;;;2.53;;
64932;SDS011;51446;53.850;10.662;2023-05-27T08:18:57;9.20;;;2.40;;
64932;SDS011;51446;53.850;10.662;2023-05-27T08:21:22;12.33;;;2.70;;
64932;SDS011;51446;53.850;10.662;2023-05-27T08:23:47;13.40;;;3.50;;
64932;SDS011;51446;53.850;10.662;2023-05-27T08:26:12;11.63;;;2.67;;
64932;SDS011;51446;53.850;10.662;2023-05-27T08:28:38;12.17;;;2.70;;
64932;SDS011;51446;53.850;10.662;2023-05-27T08:31:03;12.30;;;2.67;;
64932;SDS011;51446;53.850;10.662;2023-05-27T08:33:29;9.93;;;2.40;;
64932;SDS011;51446;53.850;10.662;2023-05-27T08:35:55;10.07;;;2.17;;
64932;SDS011;51446;53.850;10.662;2023-05-27T08:38:21;12.65;;;2.78;;
64932;SDS011;51446;53.850;10.662;2023-05-27T08:40:46;10.90;;;2.50;;
64932;SDS011;51446;53.850;10.662;2023-05-27T08:43:12;11.60;;;2.80;;
64932;SDS011;51446;53.850;10.662;2023-05-27T08:45:37;10.77;;;2.47;;
64932;SDS011;51446;53.850;10.662;2023-05-27T08:48:05;10.55;;;2.58;;
64932;SDS011;51446;53.850;10.662;2023-05-27T08:50:33;11.52;;;2.90;;
64932;SDS011;51446;53.850;10.662;2023-05-27T08:52:58;12.90;;;2.90;;
64932;SDS011;51446;53.850;10.662;2023-05-27T08:55:25;6.80;;;2.40;;
64932;SDS011;51446;53.850;10.662;2023-05-27T08:57:54;8.60;;;2.80;;
64932;SDS011;51446;53.850;10.662;2023-05-27T09:00:20;14.63;;;2.87;;
64932;SDS011;51446;53.850;10.662;2023-05-27T09:02:46;14.07;;;2.80;;
64932;SDS011;51446;53.850;10.662;2023-05-27T09:05:12;9.73;;;2.57;;
64932;SDS011;51446;53.850;10.662;2023-05-27T09:07:38;9.27;;;2.55;;
64932;SDS011;51446;53.850;10.662;2023-05-27T09:10:04;10.93;;;2.97;;
64932;SDS011;51446;53.850;10.662;2023-05-27T09:12:31;9.13;;;2.63;;
64932;SDS011;51446;53.850;10.662;2023-05-27T09:14:58;9.88;;;2.60;;
64932;SDS011;51446;53.850;10.662;2023-05-27T09:17:23;13.90;;;3.00;;
64932;SDS011;51446;53.850;10.662;2023-05-27T09:19:52;11.20;;;2.93;;
64932;SDS011;51446;53.850;10.662;2023-05-27T09:22:40;8.70;;;2.28;;
64932;SDS011;51446;53.850;10.662;2023-05-27T09:25:04;10.68;;;2.88;;
64932;SDS011;51446;53.850;10.662;2023-05-27T09:27:31;8.45;;;2.72;;
64932;SDS011;51446;53.850;10.662;2023-05-27T09:29:57;13.68;;;2.90;;
64932;SDS011;51446;53.850;10.662;2023-05-27T09:32:31;10.13;;;2.93;;
64932;SDS011;51446;53.850;10.662;2023-05-27T09:34:58;10.85;;;2.63;;
64932;SDS011;51446;53.850;10.662;2023-05-27T09:37:25;11.45;;;2.60;;
64932;SDS011;51446;53.850;10.662;2023-05-27T09:39:56;12.07;;;2.77;;
64932;SDS011;51446;53.850;10.662;2023-05-27T09:42:22;9.93;;;2.70;;
64932;SDS011;51446;53.850;10.662;2023-05-27T09:44:48;11.97;;;2.90;;
64932;SDS011;51446;53.850;10.662;2023-05-27T09:47:15;10.90;;;2.75;;
64932;SDS011;51446;53.850;10.662;2023-05-27T09:49:43;17.92;;;3.03;;
64932;SDS011;51446;53.850;10.662;2023-05-27T09:52:10;12.32;;;2.83;;
64932;SDS011;51446;53.850;10.662;2023-05-27T09:54:36;14.18;;;3.10;;
64932;SDS011;51446;53.850;10.662;2023-05-27T09:57:03;9.90;;;2.50;;
64932;SDS011;51446;53.850;10.662;2023-05-27T09:59:31;12.02;;;2.72;;
64932;SDS011;51446;53.850;10.662;2023-05-27T10:01:57;9.60;;;2.87;;
64932;SDS011;51446;53.850;10.662;2023-05-27T10:04:25;12.50;;;2.90;;
64932;SDS011;51446;53.850;10.662;2023-05-27T10:06:50;10.95;;;2.92;;
64932;SDS011;51446;53.850;10.662;2023-05-27T10:09:16;13.93;;;2.97;;
64932;SDS011;51446;53.850;10.662;2023-05-27T10:11:41;9.10;;;3.20;;
64932;SDS011;51446;53.850;10.662;2023-05-27T10:14:09;11.52;;;2.70;;
64932;SDS011;51446;53.850;10.662;2023-05-27T10:16:35;9.98;;;2.95;;
64932;SDS011;51446;53.850;10.662;2023-05-27T10:19:01;9.83;;;2.60;;
64932;SDS011;51446;53.850;10.662;2023-05-27T10:21:27;9.75;;;2.60;;
64932;SDS011;51446;53.850;10.662;2023-05-27T10:23:57;11.15;;;3.05;;
64932;SDS011;51446;53.850;10.662;2023-05-27T10:26:32;13.00;;;2.87;;
64932;SDS011;51446;53.850;10.662;2023-05-27T10:29:34;12.63;;;2.97;;
64932;SDS011;51446;53.850;10.662;2023-05-27T10:32:00;12.00;;;2.35;;
64932;SDS011;51446;53.850;10.662;2023-05-27T10:34:33;9.67;;;2.70;;
64932;SDS011;51446;53.850;10.662;2023-05-27T10:37:02;12.50;;;3.28;;
64932;SDS011;51446;53.850;10.662;2023-05-27T10:39:28;12.30;;;3.20;;
64932;SDS011;51446;53.850;10.662;2023-05-27T10:41:54;11.10;;;2.90;;
64932;SDS011;51446;53.850;10.662;2023-05-27T10:44:28;11.85;;;2.80;;
64932;SDS011;51446;53.850;10.662;2023-05-27T10:46:59;13.07;;;3.33;;
64932;SDS011;51446;53.850;10.662;2023-05-27T10:49:45;13.15;;;3.13;;
64932;SDS011;51446;53.850;10.662;2023-05-27T10:52:12;11.23;;;2.85;;
64932;SDS011;51446;53.850;10.662;2023-05-27T10:54:39;12.77;;;3.00;;
64932;SDS011;51446;53.850;10.662;2023-05-27T10:57:06;10.27;;;2.90;;
64932;SDS011;51446;53.850;10.662;2023-05-27T10:59:47;10.20;;;2.83;;
64932;SDS011;51446;53.850;10.662;2023-05-27T11:02:17;9.75;;;2.97;;
64932;SDS011;51446;53.850;10.662;2023-05-27T11:04:43;12.70;;;2.85;;
64932;SDS011;51446;53.850;10.662;2023-05-27T11:07:08;8.97;;;2.60;;
64932;SDS011;51446;53.850;10.662;2023-05-27T11:09:44;10.40;;;3.17;;
64932;SDS011;51446;53.850;10.662;2023-05-27T11:12:16;11.00;;;3.40;;
64932;SDS011;51446;53.850;10.662;2023-05-27T11:14:46;10.88;;;2.90;;
64932;SDS011;51446;53.850;10.662;2023-05-27T11:17:18;10.82;;;3.13;;
64932;SDS011;51446;53.850;10.662;2023-05-27T11:19:44;11.07;;;2.80;;
64932;SDS011;51446;53.850;10.662;2023-05-27T11:22:11;12.45;;;3.17;;
64932;SDS011;51446;53.850;10.662;2023-05-27T11:24:37;10.53;;;2.90;;
64932;SDS011;51446;53.850;10.662;2023-05-27T11:27:12;13.18;;;3.03;;
64932;SDS011;51446;53.850;10.662;2023-05-27T11:29:39;8.85;;;2.83;;
64932;SDS011;51446;53.850;10.662;2023-05-27T11:32:05;9.93;;;3.10;;
64932;SDS011;51446;53.850;10.662;2023-05-27T11:34:33;9.45;;;2.75;;
64932;SDS011;51446;53.850;10.662;2023-05-27T11:37:01;9.52;;;2.78;;
64932;SDS011;51446;53.850;10.662;2023-05-27T11:39:29;8.32;;;2.65;;
64932;SDS011;51446;53.850;10.662;2023-05-27T11:41:54;13.87;;;2.90;;
64932;SDS011;51446;53.850;10.662;2023-05-27T11:44:21;10.55;;;2.92;;
64932;SDS011;51446;53.850;10.662;2023-05-27T11:46:48;7.70;;;3.00;;
64932;SDS011;51446;53.850;10.662;2023-05-27T11:49:15;11.47;;;3.00;;
64932;SDS011;51446;53.850;10.662;2023-05-27T11:51:49;10.77;;;2.80;;
64932;SDS011;51446;53.850;10.662;2023-05-27T11:54:33;10.38;;;2.75;;
64932;SDS011;51446;53.850;10.662;2023-05-27T11:56:58;9.25;;;2.97;;
64932;SDS011;51446;53.850;10.662;2023-05-27T11:59:24;10.97;;;3.33;;
64932;SDS011;51446;53.850;10.662;2023-05-27T12:01:50;11.18;;;2.85;;
64932;SDS011;51446;53.850;10.662;2023-05-27T12:04:18;8.90;;;3.03;;
64932;SDS011;51446;53.850;10.662;2023-05-27T12:06:44;10.57;;;2.70;;
64932;SDS011;51446;53.850;10.662;2023-05-27T12:09:10;11.65;;;2.88;;
64932;SDS011;51446;53.850;10.662;2023-05-27T12:11:36;12.82;;;3.03;;
64932;SDS011;51446;53.850;10.662;2023-05-27T12:14:03;10.30;;;3.20;;
64932;SDS011;51446;53.850;10.662;2023-05-27T12:16:28;10.17;;;3.23;;
64932;SDS011;51446;53.850;10.662;2023-05-27T12:18:54;6.63;;;2.50;;
64932;SDS011;51446;53.850;10.662;2023-05-27T12:21:20;9.20;;;2.65;;
64932;SDS011;51446;53.850;10.662;2023-05-27T12:23:46;15.00;;;3.50;;
64932;SDS011;51446;53.850;10.662;2023-05-27T12:26:12;12.83;;;3.20;;
64932;SDS011;51446;53.850;10.662;2023-05-27T12:28:38;11.50;;;4.28;;
64932;SDS011;51446;53.850;10.662;2023-05-27T12:31:04;12.77;;;2.90;;
64932;SDS011;51446;53.850;10.662;2023-05-27T12:33:29;9.68;;;2.55;;
64932;SDS011;51446;53.850;10.662;2023-05-27T12:35:55;11.63;;;3.00;;
64932;SDS011;51446;53.850;10.662;2023-05-27T12:38:21;11.93;;;3.25;;
64932;SDS011;51446;53.850;10.662;2023-05-27T12:40:46;10.13;;;3.13;;
64932;SDS011;51446;53.850;10.662;2023-05-27T12:43:13;11.45;;;2.50;;
64932;SDS011;51446;53.850;10.662;2023-05-27T12:45:38;8.47;;;2.80;;
64932;SDS011;51446;53.850;10.662;2023-05-27T12:48:04;10.73;;;2.70;;
64932;SDS011;51446;53.850;10.662;2023-05-27T12:50:29;10.80;;;2.63;;
64932;SDS011;51446;53.850;10.662;2023-05-27T12:52:55;11.97;;;2.73;;
64932;SDS011;51446;53.850;10.662;2023-05-27T12:55:20;10.73;;;2.73;;
64932;SDS011;51446;53.850;10.662;2023-05-27T12:57:50;10.90;;;2.40;;
64932;SDS011;51446;53.850;10.662;2023-05-27T13:00:16;8.27;;;2.33;;
64932;SDS011;51446;53.850;10.662;2023-05-27T13:02:43;12.55;;;3.22;;
64932;SDS011;51446;53.850;10.662;2023-05-27T13:05:09;9.25;;;2.80;;
64932;SDS011;51446;53.850;10.662;2023-05-27T13:07:34;9.53;;;2.63;;
64932;SDS011;51446;53.850;10.662;2023-05-27T13:10:01;10.23;;;3.03;;
64932;SDS011;51446;53.850;10.662;2023-05-27T13:12:28;9.20;;;2.92;;
64932;SDS011;51446;53.850;10.662;2023-05-27T13:14:53;10.85;;;3.17;;
64932;SDS011;51446;53.850;10.662;2023-05-27T13:17:19;11.97;;;2.93;;
64932;SDS011;51446;53.850;10.662;2023-05-27T13:19:44;11.17;;;2.80;;
64932;SDS011;51446;53.850;10.662;2023-05-27T13:22:09;9.80;;;3.17;;
64932;SDS011;51446;53.850;10.662;2023-05-27T13:24:35;9.43;;;2.50;;
64932;SDS011;51446;53.850;10.662;2023-05-27T13:27:01;11.97;;;2.67;;
64932;SDS011;51446;53.850;10.662;2023-05-27T13:29:28;9.15;;;2.67;;
64932;SDS011;51446;53.850;10.662;2023-05-27T13:31:53;10.97;;;2.60;;
64932;SDS011;51446;53.850;10.662;2023-05-27T13:34:18;12.47;;;2.80;;
64932;SDS011;51446;53.850;10.662;2023-05-27T13:36:44;11.07;;;2.97;;
64932;SDS011;51446;53.850;10.662;2023-05-27T13:39:09;13.63;;;2.95;;
64932;SDS011;51446;53.850;10.662;2023-05-27T13:41:35;12.98;;;3.20;;
64932;SDS011;51446;53.850;10.662;2023-05-27T13:44:01;8.57;;;2.50;;
64932;SDS011;51446;53.850;10.662;2023-05-27T13:46:26;9.30;;;2.43;;
64932;SDS011;51446;53.850;10.662;2023-05-27T13:48:51;10.63;;;2.70;;
64932;SDS011;51446;53.850;10.662;2023-05-27T13:51:17;9.80;;;3.00;;
64932;SDS011;51446;53.850;10.662;2023-05-27T13:53:42;10.10;;;2.53;;
64932;SDS011;51446;53.850;10.662;2023-05-27T13:56:07;6.40;;;2.50;;
64932;SDS011;51446;53.850;10.662;2023-05-27T13:58:33;10.02;;;2.67;;
64932;SDS011;51446;53.850;10.662;2023-05-27T14:00:58;10.57;;;2.90;;
64932;SDS011;51446;53.850;10.662;2023-05-27T14:03:23;8.70;;;2.73;;
64932;SDS011;51446;53.850;10.662;2023-05-27T14:05:49;9.20;;;2.60;;
64932;SDS011;51446;53.850;10.662;2023-05-27T14:08:15;9.23;;;2.10;;
64932;SDS011;51446;53.850;10.662;2023-05-27T14:10:41;13.67;;;3.03;;
64932;SDS011;51446;53.850;10.662;2023-05-27T14:13:06;11.10;;;3.08;;
64932;SDS011;51446;53.850;10.662;2023-05-27T14:15:31;11.63;;;3.37;;
64932;SDS011;51446;53.850;10.662;2023-05-27T14:17:57;9.97;;;3.00;;
64932;SDS011;51446;53.850;10.662;2023-05-27T14:20:25;10.93;;;2.93;;
64932;SDS011;51446;53.850;10.662;2023-05-27T14:22:50;11.48;;;2.60;;
64932;SDS011;51446;53.850;10.662;2023-05-27T14:25:15;11.97;;;2.97;;